createdAt,value
2022-08-07T00:01:00.870Z,2.97
2022-08-07T00:07:09.389Z,3.30
2022-08-07T00:13:00.962Z,3.58
2022-08-07T00:18:48.657Z,3.57
2022-08-07T00:24:35.576Z,3.22
2022-08-07T00:30:27.340Z,3.15
2022-08-07T00:36:16.817Z,3.03
2022-08-07T00:42:05.478Z,3.08
2022-08-07T00:48:08.104Z,5.45
2022-08-07T00:53:58.231Z,4.05
2022-08-07T00:59:45.419Z,3.13
2022-08-07T01:05:36.556Z,2.47
2022-08-07T01:12:09.454Z,2.30
2022-08-07T01:17:34.191Z,2.83
2022-08-07T01:23:35.413Z,2.63
2022-08-07T01:29:31.454Z,2.22
2022-08-07T01:35:24.505Z,2.60
2022-08-07T01:41:14.210Z,2.28
2022-08-07T01:48:19.786Z,3.13
2022-08-07T01:54:08.510Z,2.83
2022-08-07T01:59:50.787Z,3.92
2022-08-07T02:05:59.664Z,4.13
2022-08-07T02:12:04.833Z,3.25
2022-08-07T02:17:59.890Z,3.90
2022-08-07T02:23:49.183Z,12.55
2022-08-07T02:29:48.734Z,7.70
2022-08-07T02:36:29.499Z,5.78
2022-08-07T02:41:54.460Z,4.05
2022-08-07T02:47:45.434Z,4.07
2022-08-07T02:53:39.877Z,3.35
2022-08-07T02:59:32.494Z,2.78
2022-08-07T03:05:24.647Z,3.10
2022-08-07T03:11:13.946Z,3.42
2022-08-07T03:17:05.382Z,3.20
2022-08-07T03:22:58.725Z,3.95
2022-08-07T03:28:47.583Z,3.30
2022-08-07T03:34:47.142Z,4.15
2022-08-07T03:40:53.917Z,3.67
2022-08-07T03:47:11.256Z,4.20
2022-08-07T03:52:53.273Z,3.65
2022-08-07T03:59:08.301Z,3.67
2022-08-07T04:04:49.549Z,3.75
2022-08-07T04:10:38.636Z,4.47
2022-08-07T04:16:31.473Z,4.70
2022-08-07T04:22:27.374Z,4.35
2022-08-07T04:28:15.175Z,3.80
2022-08-07T04:34:02.936Z,4.05
2022-08-07T04:39:50.226Z,4.57
2022-08-07T04:46:01.653Z,3.92
2022-08-07T04:52:20.040Z,3.40
2022-08-07T04:58:33.629Z,3.58
2022-08-07T05:04:43.869Z,3.08
2022-08-07T05:10:49.035Z,3.42
2022-08-07T05:16:44.021Z,3.45
2022-08-07T05:22:36.249Z,3.65
2022-08-07T05:28:37.060Z,4.03
2022-08-07T05:34:30.230Z,3.45
2022-08-07T05:40:20.635Z,3.33
2022-08-07T05:46:08.604Z,3.83
2022-08-07T05:51:55.722Z,2.63
2022-08-07T05:57:46.513Z,4.78
2022-08-07T06:03:53.748Z,3.55
2022-08-07T06:10:05.048Z,3.72
2022-08-07T06:15:55.565Z,14.05
2022-08-07T06:22:15.936Z,4.22
2022-08-07T06:28:04.531Z,7.40
2022-08-07T06:33:55.265Z,3.60
2022-08-07T06:40:13.051Z,3.13
2022-08-07T06:45:50.891Z,8.23
2022-08-07T06:51:49.585Z,3.70
2022-08-07T06:57:48.334Z,3.55
2022-08-07T07:03:48.141Z,3.78
2022-08-07T07:09:38.350Z,3.63
2022-08-07T07:15:36.114Z,3.45
2022-08-07T07:22:04.257Z,4.28
2022-08-07T07:27:56.140Z,3.67
2022-08-07T07:33:57.105Z,4.80
2022-08-07T07:39:54.994Z,4.10
2022-08-07T07:46:36.665Z,3.45
2022-08-07T07:51:58.139Z,3.00
2022-08-07T07:57:53.618Z,3.78
2022-08-07T08:04:10.121Z,3.42
2022-08-07T08:09:52.141Z,3.17
2022-08-07T08:22:08.113Z,3.47
2022-08-07T08:28:03.684Z,3.55
2022-08-07T08:33:55.433Z,3.33
2022-08-07T08:39:54.890Z,3.45
2022-08-07T08:46:04.010Z,3.85
2022-08-07T08:52:13.695Z,3.00
2022-08-07T08:58:24.844Z,3.33
2022-08-07T09:04:30.224Z,3.33
2022-08-07T09:10:35.308Z,3.83
2022-08-07T09:16:49.608Z,3.10
2022-08-07T09:24:31.771Z,3.08
2022-08-07T09:30:04.373Z,2.90
2022-08-07T09:36:05.469Z,2.67
2022-08-07T09:42:05.866Z,3.40
2022-08-07T09:48:20.529Z,2.70
2022-08-07T09:54:17.745Z,2.88
2022-08-07T10:00:14.759Z,2.70
2022-08-07T10:06:17.379Z,2.83
2022-08-07T10:12:26.389Z,3.40
2022-08-07T10:18:41.380Z,2.25
2022-08-07T10:25:03.308Z,2.40
2022-08-07T10:31:14.910Z,2.13
2022-08-07T10:37:12.710Z,1.90
2022-08-07T10:43:02.413Z,1.45
2022-08-07T10:49:16.891Z,1.73
2022-08-07T10:55:26.566Z,2.28
2022-08-07T11:01:35.702Z,2.10
2022-08-07T11:08:16.447Z,1.73
2022-08-07T11:14:44.639Z,1.90
2022-08-07T11:20:41.390Z,2.17
2022-08-07T11:26:48.072Z,2.10
2022-08-07T11:32:43.865Z,1.73
2022-08-07T11:38:50.587Z,2.10
2022-08-07T11:44:59.689Z,2.05
2022-08-07T11:51:40.673Z,2.85
2022-08-07T11:58:16.423Z,1.77
2022-08-07T12:04:30.615Z,1.60
2022-08-07T12:10:41.918Z,1.88
2022-08-07T12:16:42.718Z,2.20
2022-08-07T12:23:14.516Z,2.00
2022-08-07T12:29:37.954Z,1.97
2022-08-07T12:35:31.120Z,2.10
2022-08-07T12:41:42.679Z,2.03
2022-08-07T12:47:43.937Z,2.10
2022-08-07T12:54:03.078Z,2.65
2022-08-07T13:00:16.476Z,2.08
2022-08-07T13:06:27.870Z,1.80
2022-08-07T13:12:37.222Z,2.28
2022-08-07T13:18:28.405Z,1.58
2022-08-07T13:24:53.997Z,2.07
2022-08-07T13:30:48.876Z,1.58
2022-08-07T13:36:53.699Z,1.38
2022-08-07T13:42:45.627Z,1.05
2022-08-07T13:54:33.592Z,1.33
2022-08-07T14:00:26.909Z,1.20
2022-08-07T14:06:15.026Z,1.10
2022-08-07T14:12:07.333Z,1.20
2022-08-07T14:18:24.081Z,1.15
2022-08-07T14:24:33.267Z,1.48
2022-08-07T14:30:32.624Z,1.67
2022-08-07T14:36:22.863Z,1.52
2022-08-07T14:42:22.473Z,1.15
2022-08-07T14:48:22.102Z,1.23
2022-08-07T14:54:32.884Z,1.55
2022-08-07T15:00:30.892Z,1.10
2022-08-07T15:06:23.254Z,1.25
2022-08-07T15:18:41.842Z,1.10
2022-08-07T15:30:59.532Z,0.90
2022-08-07T15:37:02.896Z,0.65
2022-08-07T15:50:05.555Z,0.90
2022-08-07T15:56:01.945Z,0.70
2022-08-07T16:02:02.077Z,0.80
2022-08-07T16:08:33.648Z,0.82
2022-08-07T16:14:12.982Z,0.60
2022-08-07T16:20:34.043Z,0.73
2022-08-07T16:26:30.899Z,0.57
2022-08-07T16:32:35.890Z,0.45
2022-08-07T16:39:00.995Z,1.58
2022-08-07T16:45:15.556Z,0.63
2022-08-07T16:52:01.453Z,0.50
2022-08-07T16:58:03.949Z,1.00
2022-08-07T17:04:07.620Z,0.63
2022-08-07T17:10:32.242Z,0.85
2022-08-07T17:16:55.965Z,0.50
2022-08-07T17:23:32.565Z,0.40
2022-08-07T17:30:15.024Z,0.50
2022-08-07T17:36:00.912Z,1.35
2022-08-07T17:42:06.707Z,0.63
2022-08-07T17:48:13.168Z,0.43
2022-08-07T17:54:14.090Z,1.17
2022-08-07T18:00:32.728Z,0.90
2022-08-07T18:06:36.697Z,0.60
2022-08-07T18:12:48.196Z,0.52
2022-08-07T18:21:08.596Z,0.63
2022-08-07T18:25:19.189Z,1.00
2022-08-07T18:32:04.255Z,0.90
2022-08-07T18:45:40.188Z,0.68
2022-08-07T18:52:37.862Z,1.27
2022-08-07T18:57:58.706Z,0.65
2022-08-07T19:04:14.459Z,0.80
2022-08-07T19:10:51.776Z,1.15
2022-08-07T19:17:09.305Z,0.90
2022-08-07T19:23:21.190Z,1.10
2022-08-07T19:31:02.942Z,1.52
2022-08-07T19:35:49.323Z,2.72
2022-08-07T19:42:05.941Z,1.00
2022-08-07T19:47:56.200Z,0.98
2022-08-07T19:54:34.783Z,1.23
2022-08-07T20:14:54.171Z,1.15
2022-08-07T20:20:46.178Z,1.58
2022-08-07T20:26:44.786Z,1.42
2022-08-07T20:32:40.366Z,1.60
2022-08-07T20:38:30.809Z,2.05
2022-08-07T20:44:20.467Z,4.07
2022-08-07T20:50:11.128Z,2.28
2022-08-07T20:56:03.588Z,2.10
2022-08-07T21:01:55.275Z,1.52
2022-08-07T21:07:49.953Z,1.65
2022-08-07T21:13:57.635Z,3.55
2022-08-07T21:20:00.642Z,2.17
2022-08-07T21:26:12.162Z,2.13
2022-08-07T21:38:55.406Z,2.40
2022-08-07T21:44:51.313Z,1.90
2022-08-07T21:51:12.415Z,1.88
2022-08-07T21:58:05.287Z,2.17
2022-08-07T22:04:04.176Z,2.72
2022-08-07T22:10:04.093Z,2.45
2022-08-07T22:16:44.088Z,2.33
2022-08-07T22:22:52.532Z,3.08
2022-08-07T22:29:34.070Z,2.97
2022-08-07T22:36:11.834Z,2.00
2022-08-07T22:42:26.162Z,2.72
2022-08-07T22:49:02.237Z,2.08
2022-08-07T22:55:22.987Z,2.05
2022-08-07T23:01:49.556Z,2.42
2022-08-07T23:10:05.219Z,2.42
2022-08-07T23:16:48.348Z,1.65
2022-08-07T23:22:53.932Z,1.80
2022-08-07T23:29:17.037Z,1.83
2022-08-07T23:43:51.254Z,1.70
2022-08-07T23:50:11.888Z,1.60
2022-08-07T23:56:54.210Z,1.67
